YDFD weather

Dexfield Park
Wauchope, New South Wales, Australia

Public forecast

Using degrees Celsius for public forecast. Weather courtesy of forecast.io.

METAR (pilot weather report)

Closest report is Port Macquarie Airport, 5.4 nm (10.1 km) E. Retrieved 2019/04/24 21:00 UTC (1 hour ago):

YPMQ 242100Z AUTO 34001KT 9999 // NCD 14/14 Q1021

TAF (pilot weather forecast)

Closest forecast is Taree Airport, 30.7 nm (56.8 km) SSW. Retrieved 2019/04/24 20:03 UTC (2 hours ago):

TAF YTRE 241848Z 2420/2508 VRB03KT 9999 SCT030 FM242200 05006KT CAVOK PROB30 2420/2422 2000 BR